This is the latest recevied weather packets stored in our database for station/object F4IXV-10. If no packets are shown the sender has not sent any weather packets the latest 1 day(s).
| Time | Temp. | Humidity | Pressure | Rain* | Wind** | Luminosity | Snow |
|---|---|---|---|---|---|---|---|
| 1778103576 | 15.56° C | 55% | 983 hPa | - | - | - | - |
| 1778102366 | 15.56° C | 55% | 982 hPa | - | - | - | - |
| 1778097526 | 16.11° C | 56% | 982 hPa | - | - | - | - |
| 1778095106 | 16.67° C | 56% | 981 hPa | - | - | - | - |
| 1778090266 | 17.22° C | 56% | 980 hPa | - | - | - | - |
| 1778089661 | 17.22° C | 56% | 980 hPa | - | - | - | - |
| 1778087846 | 17.78° C | 56% | 980 hPa | - | - | - | - |
| 1778086636 | 17.78° C | 56% | 980 hPa | - | - | - | - |
| 1778083006 | 18.33° C | 56% | 979 hPa | - | - | - | - |
| 1778082401 | 18.33° C | 57% | 979 hPa | - | - | - | - |
| 1778079376 | 18.33° C | 60% | 979 hPa | - | - | - | - |
| 1778078166 | 18.33° C | 61% | 979 hPa | - | - | - | - |
| 1778075746 | 18.89° C | 57% | 979 hPa | - | - | - | - |
| 1778073326 | 18.89° C | 54% | 979 hPa | - | - | - | - |
| 1778067881 | 18.33° C | 57% | 979 hPa | - | - | - | - |
| 1778067276 | 18.33° C | 57% | 979 hPa | - | - | - | - |
| 1778064856 | 17.78° C | 58% | 979 hPa | - | - | - | - |
| 1778063041 | 18.89° C | 55% | 979 hPa | - | - | - | - |
| 1778058806 | 16.67° C | 64% | 979 hPa | - | - | - | - |
| 1778058201 | 16.11° C | 67% | 979 hPa | - | - | - | - |
| 1778056991 | 16.11° C | 68% | 979 hPa | - | - | - | - |
| 1778056386 | 16.11° C | 68% | 978 hPa | - | - | - | - |
| 1778055176 | 15.56° C | 71% | 978 hPa | - | - | - | - |
| 1778053361 | 15.56° C | 70% | 979 hPa | - | - | - | - |
| 1778052756 | 15.56° C | 69% | 979 hPa | - | - | - | - |
* Rain since midnight (hover to see other rain measurements)
** Current wind speed in m/s (hover to see current wind gust speed)